sensor_id;sensor_type;location;lat;lon;timestamp;P1;durP1;ratioP1;P2;durP2;ratioP2
80211;SDS011;70434;37.956;23.722;2023-06-19T00:28:29;13.55;;;10.45;;
80211;SDS011;70434;37.956;23.722;2023-06-19T00:31:32;11.77;;;8.23;;
80211;SDS011;70434;37.956;23.722;2023-06-19T00:37:39;17.08;;;10.07;;
80211;SDS011;70434;37.956;23.722;2023-06-19T00:50:10;13.23;;;9.48;;
80211;SDS011;70434;37.956;23.722;2023-06-19T01:06:25;13.40;;;9.20;;
80211;SDS011;70434;37.956;23.722;2023-06-19T01:29:43;14.88;;;9.60;;
80211;SDS011;70434;37.956;23.722;2023-06-19T01:48:40;14.25;;;10.07;;
80211;SDS011;70434;37.956;23.722;2023-06-19T01:51:24;16.60;;;10.80;;
80211;SDS011;70434;37.956;23.722;2023-06-19T01:57:50;12.88;;;10.98;;
80211;SDS011;70434;37.956;23.722;2023-06-19T02:21:05;15.85;;;10.50;;
80211;SDS011;70434;37.956;23.722;2023-06-19T02:39:43;15.40;;;10.68;;
80211;SDS011;70434;37.956;23.722;2023-06-19T02:55:36;15.85;;;10.57;;
80211;SDS011;70434;37.956;23.722;2023-06-19T03:23:42;18.63;;;11.95;;
80211;SDS011;70434;37.956;23.722;2023-06-19T03:32:56;16.23;;;11.18;;
80211;SDS011;70434;37.956;23.722;2023-06-19T03:45:46;17.13;;;11.38;;
80211;SDS011;70434;37.956;23.722;2023-06-19T04:56:43;15.27;;;11.50;;
80211;SDS011;70434;37.956;23.722;2023-06-19T05:12:18;14.00;;;10.30;;
80211;SDS011;70434;37.956;23.722;2023-06-19T05:18:43;12.75;;;9.65;;
80211;SDS011;70434;37.956;23.722;2023-06-19T05:25:08;15.93;;;9.57;;
80211;SDS011;70434;37.956;23.722;2023-06-19T06:10:42;8.68;;;6.07;;
80211;SDS011;70434;37.956;23.722;2023-06-19T09:34:08;10.07;;;6.82;;
80211;SDS011;70434;37.956;23.722;2023-06-19T09:36:34;10.30;;;7.70;;
80211;SDS011;70434;37.956;23.722;2023-06-19T09:39:01;10.07;;;7.15;;
80211;SDS011;70434;37.956;23.722;2023-06-19T09:41:29;8.68;;;6.55;;
80211;SDS011;70434;37.956;23.722;2023-06-19T09:43:55;8.85;;;6.40;;
80211;SDS011;70434;37.956;23.722;2023-06-19T09:46:29;10.23;;;7.25;;
80211;SDS011;70434;37.956;23.722;2023-06-19T09:48:59;13.30;;;7.35;;
80211;SDS011;70434;37.956;23.722;2023-06-19T09:51:31;8.07;;;6.35;;
80211;SDS011;70434;37.956;23.722;2023-06-19T09:54:02;10.27;;;7.00;;
80211;SDS011;70434;37.956;23.722;2023-06-19T09:56:31;10.20;;;7.88;;
80211;SDS011;70434;37.956;23.722;2023-06-19T09:58:59;9.98;;;7.25;;
80211;SDS011;70434;37.956;23.722;2023-06-19T10:01:29;11.48;;;7.28;;
80211;SDS011;70434;37.956;23.722;2023-06-19T10:04:06;9.48;;;7.00;;
80211;SDS011;70434;37.956;23.722;2023-06-19T10:06:42;9.80;;;7.07;;
80211;SDS011;70434;37.956;23.722;2023-06-19T10:09:13;13.80;;;9.00;;
80211;SDS011;70434;37.956;23.722;2023-06-19T10:14:18;13.75;;;8.50;;
80211;SDS011;70434;37.956;23.722;2023-06-19T10:16:47;9.95;;;7.18;;
80211;SDS011;70434;37.956;23.722;2023-06-19T10:19:14;13.73;;;7.15;;
80211;SDS011;70434;37.956;23.722;2023-06-19T10:21:47;8.63;;;7.05;;
80211;SDS011;70434;37.956;23.722;2023-06-19T10:24:18;9.75;;;7.32;;
80211;SDS011;70434;37.956;23.722;2023-06-19T10:27:00;11.55;;;7.07;;
80211;SDS011;70434;37.956;23.722;2023-06-19T10:29:39;11.20;;;9.25;;
80211;SDS011;70434;37.956;23.722;2023-06-19T10:32:06;11.77;;;6.68;;
80211;SDS011;70434;37.956;23.722;2023-06-19T10:34:35;11.32;;;7.45;;
80211;SDS011;70434;37.956;23.722;2023-06-19T10:37:01;9.52;;;8.07;;
80211;SDS011;70434;37.956;23.722;2023-06-19T10:39:27;10.23;;;7.30;;
80211;SDS011;70434;37.956;23.722;2023-06-19T10:41:53;14.38;;;7.70;;
80211;SDS011;70434;37.956;23.722;2023-06-19T10:44:18;7.85;;;6.90;;
80211;SDS011;70434;37.956;23.722;2023-06-19T10:46:48;8.25;;;7.00;;
80211;SDS011;70434;37.956;23.722;2023-06-19T10:49:14;12.13;;;7.25;;
80211;SDS011;70434;37.956;23.722;2023-06-19T10:51:40;13.15;;;6.93;;
80211;SDS011;70434;37.956;23.722;2023-06-19T10:54:08;9.25;;;7.35;;
80211;SDS011;70434;37.956;23.722;2023-06-19T10:56:34;11.20;;;7.47;;
80211;SDS011;70434;37.956;23.722;2023-06-19T10:59:05;9.65;;;7.10;;
80211;SDS011;70434;37.956;23.722;2023-06-19T11:01:38;8.55;;;6.68;;
80211;SDS011;70434;37.956;23.722;2023-06-19T11:04:06;13.05;;;6.78;;
80211;SDS011;70434;37.956;23.722;2023-06-19T11:06:33;9.70;;;7.35;;
80211;SDS011;70434;37.956;23.722;2023-06-19T11:08:59;11.82;;;6.90;;
80211;SDS011;70434;37.956;23.722;2023-06-19T11:11:40;9.50;;;7.60;;
80211;SDS011;70434;37.956;23.722;2023-06-19T11:14:13;9.82;;;7.82;;
80211;SDS011;70434;37.956;23.722;2023-06-19T11:16:41;10.57;;;7.25;;
80211;SDS011;70434;37.956;23.722;2023-06-19T11:19:13;10.05;;;7.38;;
80211;SDS011;70434;37.956;23.722;2023-06-19T11:21:45;8.70;;;6.82;;
80211;SDS011;70434;37.956;23.722;2023-06-19T11:24:12;12.45;;;7.45;;
80211;SDS011;70434;37.956;23.722;2023-06-19T11:26:43;10.80;;;7.57;;
80211;SDS011;70434;37.956;23.722;2023-06-19T11:29:24;10.88;;;7.60;;
80211;SDS011;70434;37.956;23.722;2023-06-19T11:31:51;10.85;;;8.15;;
80211;SDS011;70434;37.956;23.722;2023-06-19T11:34:19;11.00;;;7.85;;
80211;SDS011;70434;37.956;23.722;2023-06-19T11:36:55;12.32;;;8.00;;
80211;SDS011;70434;37.956;23.722;2023-06-19T11:39:21;11.70;;;7.75;;
80211;SDS011;70434;37.956;23.722;2023-06-19T11:41:47;7.95;;;6.82;;
80211;SDS011;70434;37.956;23.722;2023-06-19T11:44:13;10.52;;;8.18;;
80211;SDS011;70434;37.956;23.722;2023-06-19T11:46:39;13.60;;;10.38;;
80211;SDS011;70434;37.956;23.722;2023-06-19T11:49:12;10.93;;;8.27;;
80211;SDS011;70434;37.956;23.722;2023-06-19T11:51:43;12.23;;;7.85;;
80211;SDS011;70434;37.956;23.722;2023-06-19T11:54:09;10.07;;;7.57;;
80211;SDS011;70434;37.956;23.722;2023-06-19T11:56:40;10.65;;;7.97;;
80211;SDS011;70434;37.956;23.722;2023-06-19T11:59:06;12.25;;;7.63;;
80211;SDS011;70434;37.956;23.722;2023-06-19T12:01:32;11.00;;;8.13;;
80211;SDS011;70434;37.956;23.722;2023-06-19T12:03:59;8.77;;;7.43;;
80211;SDS011;70434;37.956;23.722;2023-06-19T12:06:26;10.55;;;8.57;;
80211;SDS011;70434;37.956;23.722;2023-06-19T12:08:52;10.98;;;7.38;;
80211;SDS011;70434;37.956;23.722;2023-06-19T12:11:18;9.07;;;7.45;;
80211;SDS011;70434;37.956;23.722;2023-06-19T12:13:44;9.35;;;7.18;;
80211;SDS011;70434;37.956;23.722;2023-06-19T12:16:10;11.15;;;7.28;;
80211;SDS011;70434;37.956;23.722;2023-06-19T12:18:36;11.23;;;6.65;;
80211;SDS011;70434;37.956;23.722;2023-06-19T12:21:03;8.95;;;7.57;;
80211;SDS011;70434;37.956;23.722;2023-06-19T12:23:29;8.55;;;7.15;;
80211;SDS011;70434;37.956;23.722;2023-06-19T12:25:55;9.63;;;6.88;;
80211;SDS011;70434;37.956;23.722;2023-06-19T12:28:21;11.13;;;6.97;;
80211;SDS011;70434;37.956;23.722;2023-06-19T12:30:47;13.32;;;7.82;;
80211;SDS011;70434;37.956;23.722;2023-06-19T12:33:16;8.45;;;7.53;;
80211;SDS011;70434;37.956;23.722;2023-06-19T12:35:43;17.33;;;7.22;;
80211;SDS011;70434;37.956;23.722;2023-06-19T12:38:09;9.05;;;6.53;;
80211;SDS011;70434;37.956;23.722;2023-06-19T12:40:36;10.80;;;6.60;;
80211;SDS011;70434;37.956;23.722;2023-06-19T12:43:02;11.48;;;7.07;;
80211;SDS011;70434;37.956;23.722;2023-06-19T12:45:28;9.00;;;6.78;;
80211;SDS011;70434;37.956;23.722;2023-06-19T12:47:54;9.95;;;7.07;;
80211;SDS011;70434;37.956;23.722;2023-06-19T12:50:20;10.65;;;7.20;;
80211;SDS011;70434;37.956;23.722;2023-06-19T12:52:45;10.35;;;6.90;;
80211;SDS011;70434;37.956;23.722;2023-06-19T12:55:11;7.85;;;7.05;;
80211;SDS011;70434;37.956;23.722;2023-06-19T12:57:37;12.05;;;6.95;;
80211;SDS011;70434;37.956;23.722;2023-06-19T13:00:03;9.52;;;6.95;;
80211;SDS011;70434;37.956;23.722;2023-06-19T13:02:33;11.00;;;6.97;;
80211;SDS011;70434;37.956;23.722;2023-06-19T13:04:59;9.07;;;7.05;;
80211;SDS011;70434;37.956;23.722;2023-06-19T13:07:24;11.00;;;7.45;;
80211;SDS011;70434;37.956;23.722;2023-06-19T13:09:50;9.73;;;7.18;;
80211;SDS011;70434;37.956;23.722;2023-06-19T13:12:16;8.85;;;6.82;;
80211;SDS011;70434;37.956;23.722;2023-06-19T13:14:41;9.88;;;7.88;;
80211;SDS011;70434;37.956;23.722;2023-06-19T13:17:07;12.70;;;6.95;;
80211;SDS011;70434;37.956;23.722;2023-06-19T13:19:33;11.02;;;7.03;;
80211;SDS011;70434;37.956;23.722;2023-06-19T13:21:59;10.25;;;7.18;;
80211;SDS011;70434;37.956;23.722;2023-06-19T13:24:25;10.48;;;7.60;;
80211;SDS011;70434;37.956;23.722;2023-06-19T13:26:52;12.98;;;7.20;;
80211;SDS011;70434;37.956;23.722;2023-06-19T13:29:18;9.40;;;6.68;;
80211;SDS011;70434;37.956;23.722;2023-06-19T13:31:44;10.35;;;6.95;;
80211;SDS011;70434;37.956;23.722;2023-06-19T13:34:11;11.75;;;6.97;;
80211;SDS011;70434;37.956;23.722;2023-06-19T13:36:36;12.25;;;9.30;;
80211;SDS011;70434;37.956;23.722;2023-06-19T13:39:03;11.23;;;7.57;;
80211;SDS011;70434;37.956;23.722;2023-06-19T13:41:29;10.90;;;6.90;;
80211;SDS011;70434;37.956;23.722;2023-06-19T13:43:57;11.20;;;7.05;;
80211;SDS011;70434;37.956;23.722;2023-06-19T13:46:26;9.73;;;7.13;;
80211;SDS011;70434;37.956;23.722;2023-06-19T13:48:52;10.63;;;7.18;;
80211;SDS011;70434;37.956;23.722;2023-06-19T13:51:18;8.68;;;6.97;;
80211;SDS011;70434;37.956;23.722;2023-06-19T13:53:45;10.52;;;7.30;;
80211;SDS011;70434;37.956;23.722;2023-06-19T13:56:11;7.88;;;6.95;;
80211;SDS011;70434;37.956;23.722;2023-06-19T13:58:38;12.45;;;7.65;;
80211;SDS011;70434;37.956;23.722;2023-06-19T14:01:04;11.48;;;7.55;;
80211;SDS011;70434;37.956;23.722;2023-06-19T14:03:29;9.32;;;7.20;;
80211;SDS011;70434;37.956;23.722;2023-06-19T14:05:55;11.25;;;7.90;;
80211;SDS011;70434;37.956;23.722;2023-06-19T14:08:21;10.43;;;8.15;;
80211;SDS011;70434;37.956;23.722;2023-06-19T14:10:47;12.40;;;8.63;;
80211;SDS011;70434;37.956;23.722;2023-06-19T14:13:12;14.07;;;8.02;;
80211;SDS011;70434;37.956;23.722;2023-06-19T14:15:38;11.23;;;8.02;;
80211;SDS011;70434;37.956;23.722;2023-06-19T14:18:04;13.05;;;7.95;;
80211;SDS011;70434;37.956;23.722;2023-06-19T14:20:30;12.75;;;7.95;;
80211;SDS011;70434;37.956;23.722;2023-06-19T14:22:56;10.15;;;8.00;;
80211;SDS011;70434;37.956;23.722;2023-06-19T14:25:22;10.93;;;8.23;;
80211;SDS011;70434;37.956;23.722;2023-06-19T14:27:47;9.63;;;7.28;;
80211;SDS011;70434;37.956;23.722;2023-06-19T14:30:13;10.45;;;7.80;;
80211;SDS011;70434;37.956;23.722;2023-06-19T14:32:39;12.35;;;8.98;;
80211;SDS011;70434;37.956;23.722;2023-06-19T14:35:05;9.25;;;8.27;;
80211;SDS011;70434;37.956;23.722;2023-06-19T14:37:32;14.23;;;8.35;;
80211;SDS011;70434;37.956;23.722;2023-06-19T14:48:12;9.98;;;7.47;;
80211;SDS011;70434;37.956;23.722;2023-06-19T14:50:37;10.35;;;7.93;;
80211;SDS011;70434;37.956;23.722;2023-06-19T14:53:03;12.07;;;7.80;;
80211;SDS011;70434;37.956;23.722;2023-06-19T14:55:29;14.23;;;7.63;;
80211;SDS011;70434;37.956;23.722;2023-06-19T14:57:55;10.45;;;7.68;;
80211;SDS011;70434;37.956;23.722;2023-06-19T15:00:20;9.68;;;7.43;;
80211;SDS011;70434;37.956;23.722;2023-06-19T15:02:46;8.88;;;7.53;;
80211;SDS011;70434;37.956;23.722;2023-06-19T15:05:12;10.65;;;7.53;;
80211;SDS011;70434;37.956;23.722;2023-06-19T15:07:37;13.93;;;7.82;;
80211;SDS011;70434;37.956;23.722;2023-06-19T15:10:03;9.52;;;7.45;;
80211;SDS011;70434;37.956;23.722;2023-06-19T15:12:30;11.98;;;7.68;;
80211;SDS011;70434;37.956;23.722;2023-06-19T15:14:57;9.43;;;7.22;;
80211;SDS011;70434;37.956;23.722;2023-06-19T15:17:25;10.57;;;7.25;;
80211;SDS011;70434;37.956;23.722;2023-06-19T15:19:51;12.45;;;7.10;;
80211;SDS011;70434;37.956;23.722;2023-06-19T15:22:21;11.73;;;6.97;;
80211;SDS011;70434;37.956;23.722;2023-06-19T15:24:48;10.75;;;7.28;;
80211;SDS011;70434;37.956;23.722;2023-06-19T15:27:14;13.02;;;7.68;;
80211;SDS011;70434;37.956;23.722;2023-06-19T15:29:39;12.10;;;6.93;;
80211;SDS011;70434;37.956;23.722;2023-06-19T15:32:05;10.52;;;6.65;;
80211;SDS011;70434;37.956;23.722;2023-06-19T15:34:31;9.07;;;6.63;;
80211;SDS011;70434;37.956;23.722;2023-06-19T15:36:57;8.98;;;6.93;;
80211;SDS011;70434;37.956;23.722;2023-06-19T15:39:23;11.40;;;6.82;;
80211;SDS011;70434;37.956;23.722;2023-06-19T15:41:49;7.30;;;6.55;;
80211;SDS011;70434;37.956;23.722;2023-06-19T15:44:15;8.57;;;6.93;;
80211;SDS011;70434;37.956;23.722;2023-06-19T15:46:40;9.65;;;6.50;;
80211;SDS011;70434;37.956;23.722;2023-06-19T15:49:06;11.70;;;7.75;;
80211;SDS011;70434;37.956;23.722;2023-06-19T15:51:32;11.98;;;8.43;;
80211;SDS011;70434;37.956;23.722;2023-06-19T15:53:58;10.85;;;7.65;;
80211;SDS011;70434;37.956;23.722;2023-06-19T15:56:24;10.48;;;7.85;;
80211;SDS011;70434;37.956;23.722;2023-06-19T15:58:49;8.95;;;6.97;;
80211;SDS011;70434;37.956;23.722;2023-06-19T16:01:16;11.32;;;6.82;;
80211;SDS011;70434;37.956;23.722;2023-06-19T16:03:42;9.77;;;7.40;;
80211;SDS011;70434;37.956;23.722;2023-06-19T16:06:08;10.40;;;7.20;;
80211;SDS011;70434;37.956;23.722;2023-06-19T16:08:34;11.77;;;6.80;;
80211;SDS011;70434;37.956;23.722;2023-06-19T16:10:59;8.15;;;6.97;;
80211;SDS011;70434;37.956;23.722;2023-06-19T16:13:27;10.18;;;7.65;;
80211;SDS011;70434;37.956;23.722;2023-06-19T16:15:53;9.48;;;7.35;;
80211;SDS011;70434;37.956;23.722;2023-06-19T16:18:18;11.15;;;7.20;;
80211;SDS011;70434;37.956;23.722;2023-06-19T16:20:44;8.88;;;6.90;;
80211;SDS011;70434;37.956;23.722;2023-06-19T16:23:10;9.52;;;7.28;;
80211;SDS011;70434;37.956;23.722;2023-06-19T16:25:36;14.00;;;7.43;;
80211;SDS011;70434;37.956;23.722;2023-06-19T16:28:01;11.07;;;7.43;;
80211;SDS011;70434;37.956;23.722;2023-06-19T16:30:29;10.30;;;7.88;;
80211;SDS011;70434;37.956;23.722;2023-06-19T16:32:55;12.52;;;7.78;;
80211;SDS011;70434;37.956;23.722;2023-06-19T16:35:21;11.68;;;8.02;;
80211;SDS011;70434;37.956;23.722;2023-06-19T16:37:51;12.52;;;8.30;;
80211;SDS011;70434;37.956;23.722;2023-06-19T16:40:22;9.85;;;7.63;;
80211;SDS011;70434;37.956;23.722;2023-06-19T16:45:20;13.32;;;8.82;;
80211;SDS011;70434;37.956;23.722;2023-06-19T16:47:47;12.52;;;8.48;;
80211;SDS011;70434;37.956;23.722;2023-06-19T16:50:13;11.60;;;9.02;;
80211;SDS011;70434;37.956;23.722;2023-06-19T16:52:38;12.40;;;9.20;;
80211;SDS011;70434;37.956;23.722;2023-06-19T16:55:04;10.48;;;8.38;;
80211;SDS011;70434;37.956;23.722;2023-06-19T16:57:30;9.50;;;7.97;;
80211;SDS011;70434;37.956;23.722;2023-06-19T16:59:57;11.93;;;8.65;;
80211;SDS011;70434;37.956;23.722;2023-06-19T17:02:24;10.93;;;8.07;;
80211;SDS011;70434;37.956;23.722;2023-06-19T17:04:50;11.82;;;9.02;;
80211;SDS011;70434;37.956;23.722;2023-06-19T17:07:16;12.02;;;8.80;;
80211;SDS011;70434;37.956;23.722;2023-06-19T17:09:42;10.60;;;8.30;;
80211;SDS011;70434;37.956;23.722;2023-06-19T17:12:08;13.05;;;8.43;;
80211;SDS011;70434;37.956;23.722;2023-06-19T17:14:34;13.85;;;9.10;;
80211;SDS011;70434;37.956;23.722;2023-06-19T17:17:00;11.95;;;8.63;;
80211;SDS011;70434;37.956;23.722;2023-06-19T17:19:26;15.73;;;9.77;;
80211;SDS011;70434;37.956;23.722;2023-06-19T17:21:52;11.25;;;8.70;;
80211;SDS011;70434;37.956;23.722;2023-06-19T17:24:19;14.88;;;8.90;;
80211;SDS011;70434;37.956;23.722;2023-06-19T17:26:45;10.50;;;9.27;;
80211;SDS011;70434;37.956;23.722;2023-06-19T17:29:11;11.80;;;8.45;;
80211;SDS011;70434;37.956;23.722;2023-06-19T17:31:37;11.88;;;8.77;;
80211;SDS011;70434;37.956;23.722;2023-06-19T17:34:03;11.07;;;8.77;;
80211;SDS011;70434;37.956;23.722;2023-06-19T17:36:29;13.10;;;9.50;;
80211;SDS011;70434;37.956;23.722;2023-06-19T17:38:55;12.68;;;9.43;;
80211;SDS011;70434;37.956;23.722;2023-06-19T17:41:21;10.57;;;9.48;;
80211;SDS011;70434;37.956;23.722;2023-06-19T17:43:48;12.50;;;9.38;;
80211;SDS011;70434;37.956;23.722;2023-06-19T17:46:15;11.77;;;8.82;;
80211;SDS011;70434;37.956;23.722;2023-06-19T17:48:41;15.02;;;11.60;;
80211;SDS011;70434;37.956;23.722;2023-06-19T17:51:08;11.48;;;9.38;;
80211;SDS011;70434;37.956;23.722;2023-06-19T17:53:33;14.15;;;10.30;;
80211;SDS011;70434;37.956;23.722;2023-06-19T17:55:59;14.80;;;10.32;;
80211;SDS011;70434;37.956;23.722;2023-06-19T17:58:29;14.77;;;9.75;;
80211;SDS011;70434;37.956;23.722;2023-06-19T18:00:58;11.80;;;9.18;;
80211;SDS011;70434;37.956;23.722;2023-06-19T18:03:24;11.40;;;9.18;;
80211;SDS011;70434;37.956;23.722;2023-06-19T18:05:50;12.68;;;8.68;;
80211;SDS011;70434;37.956;23.722;2023-06-19T18:08:15;16.38;;;9.98;;
80211;SDS011;70434;37.956;23.722;2023-06-19T18:10:41;19.48;;;9.90;;
80211;SDS011;70434;37.956;23.722;2023-06-19T18:13:07;14.43;;;9.52;;
80211;SDS011;70434;37.956;23.722;2023-06-19T18:15:32;13.27;;;9.70;;
80211;SDS011;70434;37.956;23.722;2023-06-19T18:17:58;13.98;;;8.80;;
80211;SDS011;70434;37.956;23.722;2023-06-19T18:20:24;11.00;;;8.90;;
80211;SDS011;70434;37.956;23.722;2023-06-19T18:22:50;10.15;;;8.73;;
80211;SDS011;70434;37.956;23.722;2023-06-19T18:25:15;13.88;;;8.88;;
80211;SDS011;70434;37.956;23.722;2023-06-19T18:27:41;10.38;;;9.30;;
80211;SDS011;70434;37.956;23.722;2023-06-19T18:30:07;13.65;;;9.68;;
80211;SDS011;70434;37.956;23.722;2023-06-19T18:32:33;14.48;;;10.05;;
80211;SDS011;70434;37.956;23.722;2023-06-19T18:34:59;13.60;;;10.05;;
80211;SDS011;70434;37.956;23.722;2023-06-19T18:37:24;14.27;;;10.20;;
80211;SDS011;70434;37.956;23.722;2023-06-19T18:39:52;13.57;;;10.00;;
80211;SDS011;70434;37.956;23.722;2023-06-19T18:42:19;16.52;;;9.80;;
80211;SDS011;70434;37.956;23.722;2023-06-19T18:44:45;16.42;;;11.32;;
80211;SDS011;70434;37.956;23.722;2023-06-19T18:47:11;11.13;;;9.93;;
80211;SDS011;70434;37.956;23.722;2023-06-19T18:49:37;15.52;;;9.75;;
80211;SDS011;70434;37.956;23.722;2023-06-19T18:52:02;13.40;;;9.32;;
80211;SDS011;70434;37.956;23.722;2023-06-19T18:54:28;11.40;;;9.77;;
80211;SDS011;70434;37.956;23.722;2023-06-19T18:56:54;12.65;;;9.90;;
80211;SDS011;70434;37.956;23.722;2023-06-19T18:59:20;12.48;;;9.48;;
80211;SDS011;70434;37.956;23.722;2023-06-19T19:01:46;13.13;;;9.98;;
80211;SDS011;70434;37.956;23.722;2023-06-19T19:04:12;17.35;;;10.23;;
80211;SDS011;70434;37.956;23.722;2023-06-19T19:06:37;13.60;;;10.07;;
80211;SDS011;70434;37.956;23.722;2023-06-19T19:09:03;12.52;;;9.43;;
80211;SDS011;70434;37.956;23.722;2023-06-19T19:11:29;14.05;;;9.30;;
80211;SDS011;70434;37.956;23.722;2023-06-19T19:13:55;11.43;;;9.50;;
80211;SDS011;70434;37.956;23.722;2023-06-19T19:16:20;15.27;;;10.23;;
80211;SDS011;70434;37.956;23.722;2023-06-19T19:18:46;12.00;;;9.23;;
80211;SDS011;70434;37.956;23.722;2023-06-19T19:21:12;10.63;;;8.90;;
80211;SDS011;70434;37.956;23.722;2023-06-19T19:23:38;11.85;;;9.45;;
80211;SDS011;70434;37.956;23.722;2023-06-19T19:26:04;12.23;;;9.82;;
80211;SDS011;70434;37.956;23.722;2023-06-19T19:28:30;13.40;;;9.82;;
80211;SDS011;70434;37.956;23.722;2023-06-19T19:30:56;14.85;;;9.50;;
80211;SDS011;70434;37.956;23.722;2023-06-19T19:33:21;14.45;;;8.52;;
80211;SDS011;70434;37.956;23.722;2023-06-19T19:35:47;12.45;;;9.07;;
80211;SDS011;70434;37.956;23.722;2023-06-19T19:38:13;11.27;;;9.25;;
80211;SDS011;70434;37.956;23.722;2023-06-19T19:40:41;13.98;;;8.75;;
80211;SDS011;70434;37.956;23.722;2023-06-19T19:43:07;10.52;;;8.95;;
80211;SDS011;70434;37.956;23.722;2023-06-19T19:45:33;11.77;;;9.30;;
80211;SDS011;70434;37.956;23.722;2023-06-19T19:47:58;11.00;;;8.65;;
80211;SDS011;70434;37.956;23.722;2023-06-19T19:50:24;13.90;;;9.27;;
80211;SDS011;70434;37.956;23.722;2023-06-19T19:52:50;15.00;;;10.13;;
80211;SDS011;70434;37.956;23.722;2023-06-19T19:55:17;12.45;;;9.57;;
80211;SDS011;70434;37.956;23.722;2023-06-19T19:57:43;13.95;;;9.57;;
80211;SDS011;70434;37.956;23.722;2023-06-19T20:00:09;12.45;;;9.55;;
80211;SDS011;70434;37.956;23.722;2023-06-19T20:02:35;12.75;;;9.52;;
80211;SDS011;70434;37.956;23.722;2023-06-19T20:05:01;12.00;;;9.45;;
80211;SDS011;70434;37.956;23.722;2023-06-19T20:07:27;11.25;;;9.00;;
80211;SDS011;70434;37.956;23.722;2023-06-19T20:09:53;11.48;;;8.77;;
80211;SDS011;70434;37.956;23.722;2023-06-19T20:12:18;10.10;;;8.52;;
80211;SDS011;70434;37.956;23.722;2023-06-19T20:14:44;11.25;;;8.75;;
80211;SDS011;70434;37.956;23.722;2023-06-19T20:17:10;12.65;;;8.38;;
80211;SDS011;70434;37.956;23.722;2023-06-19T20:19:37;11.75;;;9.52;;
80211;SDS011;70434;37.956;23.722;2023-06-19T20:22:03;12.30;;;9.52;;
80211;SDS011;70434;37.956;23.722;2023-06-19T20:24:28;13.88;;;9.85;;
80211;SDS011;70434;37.956;23.722;2023-06-19T20:26:54;15.20;;;10.38;;
80211;SDS011;70434;37.956;23.722;2023-06-19T20:29:20;17.70;;;10.95;;
80211;SDS011;70434;37.956;23.722;2023-06-19T20:31:46;15.40;;;9.43;;
80211;SDS011;70434;37.956;23.722;2023-06-19T20:34:12;13.20;;;10.38;;
80211;SDS011;70434;37.956;23.722;2023-06-19T20:36:38;18.88;;;11.25;;
80211;SDS011;70434;37.956;23.722;2023-06-19T20:39:04;15.60;;;9.27;;
80211;SDS011;70434;37.956;23.722;2023-06-19T20:41:31;16.35;;;9.43;;
80211;SDS011;70434;37.956;23.722;2023-06-19T20:43:57;11.90;;;8.70;;
80211;SDS011;70434;37.956;23.722;2023-06-19T20:46:22;15.82;;;10.73;;
80211;SDS011;70434;37.956;23.722;2023-06-19T20:48:48;12.38;;;9.23;;
80211;SDS011;70434;37.956;23.722;2023-06-19T20:51:14;11.32;;;8.98;;
80211;SDS011;70434;37.956;23.722;2023-06-19T20:53:40;11.80;;;8.75;;
80211;SDS011;70434;37.956;23.722;2023-06-19T20:56:06;14.40;;;9.93;;
80211;SDS011;70434;37.956;23.722;2023-06-19T20:58:32;16.83;;;10.80;;
80211;SDS011;70434;37.956;23.722;2023-06-19T21:00:58;19.73;;;11.35;;
80211;SDS011;70434;37.956;23.722;2023-06-19T21:03:24;18.25;;;11.18;;
80211;SDS011;70434;37.956;23.722;2023-06-19T21:05:53;15.02;;;11.25;;
80211;SDS011;70434;37.956;23.722;2023-06-19T21:08:21;18.60;;;11.60;;
80211;SDS011;70434;37.956;23.722;2023-06-19T21:10:55;15.85;;;11.18;;
80211;SDS011;70434;37.956;23.722;2023-06-19T21:13:21;14.13;;;11.82;;
80211;SDS011;70434;37.956;23.722;2023-06-19T21:15:47;15.75;;;12.82;;
80211;SDS011;70434;37.956;23.722;2023-06-19T21:18:14;14.48;;;12.65;;
80211;SDS011;70434;37.956;23.722;2023-06-19T21:20:40;14.90;;;11.98;;
80211;SDS011;70434;37.956;23.722;2023-06-19T21:23:06;15.40;;;11.05;;
80211;SDS011;70434;37.956;23.722;2023-06-19T21:25:32;22.38;;;11.88;;
80211;SDS011;70434;37.956;23.722;2023-06-19T21:27:58;15.32;;;11.48;;
80211;SDS011;70434;37.956;23.722;2023-06-19T21:30:24;13.18;;;10.50;;
80211;SDS011;70434;37.956;23.722;2023-06-19T21:32:50;22.58;;;11.95;;
80211;SDS011;70434;37.956;23.722;2023-06-19T21:35:16;16.52;;;12.23;;
80211;SDS011;70434;37.956;23.722;2023-06-19T21:37:42;18.25;;;13.02;;
80211;SDS011;70434;37.956;23.722;2023-06-19T21:40:07;20.98;;;12.02;;
80211;SDS011;70434;37.956;23.722;2023-06-19T21:42:33;18.08;;;11.32;;
80211;SDS011;70434;37.956;23.722;2023-06-19T21:44:59;19.23;;;11.73;;
80211;SDS011;70434;37.956;23.722;2023-06-19T21:47:25;15.52;;;11.38;;
80211;SDS011;70434;37.956;23.722;2023-06-19T21:49:50;16.38;;;12.38;;
80211;SDS011;70434;37.956;23.722;2023-06-19T21:52:16;19.83;;;11.50;;
80211;SDS011;70434;37.956;23.722;2023-06-19T21:54:42;15.57;;;12.25;;
80211;SDS011;70434;37.956;23.722;2023-06-19T21:57:08;14.25;;;11.25;;
80211;SDS011;70434;37.956;23.722;2023-06-19T21:59:34;17.73;;;12.30;;
80211;SDS011;70434;37.956;23.722;2023-06-19T22:02:02;16.00;;;11.60;;
80211;SDS011;70434;37.956;23.722;2023-06-19T22:04:27;15.88;;;12.05;;
80211;SDS011;70434;37.956;23.722;2023-06-19T22:06:53;18.17;;;12.48;;
80211;SDS011;70434;37.956;23.722;2023-06-19T22:09:19;15.93;;;11.52;;
80211;SDS011;70434;37.956;23.722;2023-06-19T22:11:45;15.75;;;12.27;;
80211;SDS011;70434;37.956;23.722;2023-06-19T22:14:10;15.50;;;11.98;;
80211;SDS011;70434;37.956;23.722;2023-06-19T22:16:36;18.35;;;11.15;;
80211;SDS011;70434;37.956;23.722;2023-06-19T22:19:02;16.27;;;10.75;;
80211;SDS011;70434;37.956;23.722;2023-06-19T22:21:28;12.88;;;10.68;;
80211;SDS011;70434;37.956;23.722;2023-06-19T22:23:53;17.45;;;11.48;;
80211;SDS011;70434;37.956;23.722;2023-06-19T22:26:19;17.73;;;12.07;;
80211;SDS011;70434;37.956;23.722;2023-06-19T22:28:45;14.75;;;11.68;;
80211;SDS011;70434;37.956;23.722;2023-06-19T22:31:11;16.15;;;12.07;;
80211;SDS011;70434;37.956;23.722;2023-06-19T22:33:37;14.32;;;11.60;;
80211;SDS011;70434;37.956;23.722;2023-06-19T22:36:02;18.95;;;13.75;;
80211;SDS011;70434;37.956;23.722;2023-06-19T22:38:28;20.73;;;15.27;;
80211;SDS011;70434;37.956;23.722;2023-06-19T22:40:54;16.75;;;13.07;;
80211;SDS011;70434;37.956;23.722;2023-06-19T22:43:20;17.23;;;12.90;;
80211;SDS011;70434;37.956;23.722;2023-06-19T22:45:46;17.17;;;12.25;;
80211;SDS011;70434;37.956;23.722;2023-06-19T22:48:14;17.55;;;13.00;;
80211;SDS011;70434;37.956;23.722;2023-06-19T22:50:43;20.42;;;13.80;;
80211;SDS011;70434;37.956;23.722;2023-06-19T22:53:10;17.95;;;12.73;;
80211;SDS011;70434;37.956;23.722;2023-06-19T22:55:35;21.27;;;13.30;;
80211;SDS011;70434;37.956;23.722;2023-06-19T22:58:01;18.58;;;13.95;;
80211;SDS011;70434;37.956;23.722;2023-06-19T23:00:27;20.35;;;12.90;;
80211;SDS011;70434;37.956;23.722;2023-06-19T23:02:53;19.83;;;14.15;;
80211;SDS011;70434;37.956;23.722;2023-06-19T23:05:19;18.33;;;14.02;;
80211;SDS011;70434;37.956;23.722;2023-06-19T23:07:45;17.50;;;13.73;;
80211;SDS011;70434;37.956;23.722;2023-06-19T23:10:10;19.08;;;13.90;;
80211;SDS011;70434;37.956;23.722;2023-06-19T23:12:36;17.33;;;13.15;;
80211;SDS011;70434;37.956;23.722;2023-06-19T23:15:02;18.95;;;14.00;;